sensor_id;sensor_type;location;lat;lon;timestamp;P1;P2;P0
34240;PMS7003;20503;50.200;19.508;2023-03-03T00:01:30;65;42;24
34240;PMS7003;20503;50.200;19.508;2023-03-03T00:06:37;62;43;26
34240;PMS7003;20503;50.200;19.508;2023-03-03T00:11:46;61;41;24
34240;PMS7003;20503;50.200;19.508;2023-03-03T00:16:54;64;47;28
34240;PMS7003;20503;50.200;19.508;2023-03-03T00:22:01;57;38;24
34240;PMS7003;20503;50.200;19.508;2023-03-03T00:32:27;59;42;25
34240;PMS7003;20503;50.200;19.508;2023-03-03T00:37:37;67;49;28
34240;PMS7003;20503;50.200;19.508;2023-03-03T00:42:51;64;43;26
34240;PMS7003;20503;50.200;19.508;2023-03-03T00:47:54;60;43;24
34240;PMS7003;20503;50.200;19.508;2023-03-03T00:52:58;56;40;23
34240;PMS7003;20503;50.200;19.508;2023-03-03T00:58:05;64;42;25
34240;PMS7003;20503;50.200;19.508;2023-03-03T01:03:08;59;40;25
34240;PMS7003;20503;50.200;19.508;2023-03-03T01:08:14;55;40;24
34240;PMS7003;20503;50.200;19.508;2023-03-03T01:13:23;60;41;24
34240;PMS7003;20503;50.200;19.508;2023-03-03T01:18:30;58;41;23
34240;PMS7003;20503;50.200;19.508;2023-03-03T01:23:38;60;44;24
34240;PMS7003;20503;50.200;19.508;2023-03-03T01:28:45;56;39;22
34240;PMS7003;20503;50.200;19.508;2023-03-03T01:33:53;56;41;23
34240;PMS7003;20503;50.200;19.508;2023-03-03T01:39:02;52;37;21
34240;PMS7003;20503;50.200;19.508;2023-03-03T01:44:18;51;37;20
34240;PMS7003;20503;50.200;19.508;2023-03-03T01:54:37;46;33;19
34240;PMS7003;20503;50.200;19.508;2023-03-03T01:59:45;46;32;20
34240;PMS7003;20503;50.200;19.508;2023-03-03T02:04:53;47;34;20
34240;PMS7003;20503;50.200;19.508;2023-03-03T02:10:15;55;40;24
34240;PMS7003;20503;50.200;19.508;2023-03-03T02:30:53;57;42;24
34240;PMS7003;20503;50.200;19.508;2023-03-03T02:35:59;54;39;23
34240;PMS7003;20503;50.200;19.508;2023-03-03T02:46:18;44;32;18
34240;PMS7003;20503;50.200;19.508;2023-03-03T02:51:20;51;36;21
34240;PMS7003;20503;50.200;19.508;2023-03-03T02:56:23;49;36;21
34240;PMS7003;20503;50.200;19.508;2023-03-03T03:01:27;53;36;22
34240;PMS7003;20503;50.200;19.508;2023-03-03T03:06:37;51;37;22
34240;PMS7003;20503;50.200;19.508;2023-03-03T03:11:41;50;36;20
34240;PMS7003;20503;50.200;19.508;2023-03-03T03:16:45;41;31;17
34240;PMS7003;20503;50.200;19.508;2023-03-03T03:21:47;44;32;18
34240;PMS7003;20503;50.200;19.508;2023-03-03T03:26:50;49;39;22
34240;PMS7003;20503;50.200;19.508;2023-03-03T03:31:52;54;38;23
34240;PMS7003;20503;50.200;19.508;2023-03-03T03:37:00;56;40;22
34240;PMS7003;20503;50.200;19.508;2023-03-03T03:42:08;52;36;21
34240;PMS7003;20503;50.200;19.508;2023-03-03T03:47:15;38;28;18
34240;PMS7003;20503;50.200;19.508;2023-03-03T03:52:23;45;32;19
34240;PMS7003;20503;50.200;19.508;2023-03-03T03:57:31;34;23;15
34240;PMS7003;20503;50.200;19.508;2023-03-03T04:02:39;41;30;16
34240;PMS7003;20503;50.200;19.508;2023-03-03T04:07:47;36;28;17
34240;PMS7003;20503;50.200;19.508;2023-03-03T04:12:55;40;28;16
34240;PMS7003;20503;50.200;19.508;2023-03-03T04:18:03;39;28;15
34240;PMS7003;20503;50.200;19.508;2023-03-03T04:23:11;42;29;20
34240;PMS7003;20503;50.200;19.508;2023-03-03T04:28:19;46;32;16
34240;PMS7003;20503;50.200;19.508;2023-03-03T04:33:27;44;33;20
34240;PMS7003;20503;50.200;19.508;2023-03-03T04:38:35;49;33;20
34240;PMS7003;20503;50.200;19.508;2023-03-03T04:43:42;41;33;20
34240;PMS7003;20503;50.200;19.508;2023-03-03T04:48:51;42;30;19
34240;PMS7003;20503;50.200;19.508;2023-03-03T04:53:59;38;29;17
34240;PMS7003;20503;50.200;19.508;2023-03-03T04:59:07;44;31;19
34240;PMS7003;20503;50.200;19.508;2023-03-03T05:04:15;36;29;17
34240;PMS7003;20503;50.200;19.508;2023-03-03T05:09:22;37;26;14
34240;PMS7003;20503;50.200;19.508;2023-03-03T05:14:31;38;27;16
34240;PMS7003;20503;50.200;19.508;2023-03-03T05:19:40;48;32;17
34240;PMS7003;20503;50.200;19.508;2023-03-03T05:24:46;39;30;17
34240;PMS7003;20503;50.200;19.508;2023-03-03T05:29:54;44;32;19
34240;PMS7003;20503;50.200;19.508;2023-03-03T05:35:02;47;34;20
34240;PMS7003;20503;50.200;19.508;2023-03-03T05:40:10;41;33;20
34240;PMS7003;20503;50.200;19.508;2023-03-03T05:45:18;51;37;21
34240;PMS7003;20503;50.200;19.508;2023-03-03T05:50:25;50;35;21
34240;PMS7003;20503;50.200;19.508;2023-03-03T05:55:33;50;37;21
34240;PMS7003;20503;50.200;19.508;2023-03-03T06:00:43;51;35;20
34240;PMS7003;20503;50.200;19.508;2023-03-03T06:05:50;50;38;21
34240;PMS7003;20503;50.200;19.508;2023-03-03T06:10:57;53;36;22
34240;PMS7003;20503;50.200;19.508;2023-03-03T06:16:05;51;37;21
34240;PMS7003;20503;50.200;19.508;2023-03-03T06:21:13;56;37;21
34240;PMS7003;20503;50.200;19.508;2023-03-03T06:26:21;55;39;22
34240;PMS7003;20503;50.200;19.508;2023-03-03T06:31:30;60;43;25
34240;PMS7003;20503;50.200;19.508;2023-03-03T06:36:37;68;49;30
34240;PMS7003;20503;50.200;19.508;2023-03-03T06:41:49;67;46;28
34240;PMS7003;20503;50.200;19.508;2023-03-03T06:46:54;61;46;26
34240;PMS7003;20503;50.200;19.508;2023-03-03T06:52:08;68;46;27
34240;PMS7003;20503;50.200;19.508;2023-03-03T06:57:19;67;49;31
34240;PMS7003;20503;50.200;19.508;2023-03-03T07:02:25;59;41;26
34240;PMS7003;20503;50.200;19.508;2023-03-03T07:07:26;70;48;29
34240;PMS7003;20503;50.200;19.508;2023-03-03T07:12:33;67;50;31
34240;PMS7003;20503;50.200;19.508;2023-03-03T07:17:43;118;83;41
34240;PMS7003;20503;50.200;19.508;2023-03-03T07:22:50;109;80;38
34240;PMS7003;20503;50.200;19.508;2023-03-03T07:27:59;71;47;26
34240;PMS7003;20503;50.200;19.508;2023-03-03T07:33:07;57;39;22
34240;PMS7003;20503;50.200;19.508;2023-03-03T07:38:22;62;45;27
34240;PMS7003;20503;50.200;19.508;2023-03-03T07:43:29;73;55;32
34240;PMS7003;20503;50.200;19.508;2023-03-03T07:48:37;75;61;32
34240;PMS7003;20503;50.200;19.508;2023-03-03T07:53:41;62;43;25
34240;PMS7003;20503;50.200;19.508;2023-03-03T07:58:46;58;41;24
34240;PMS7003;20503;50.200;19.508;2023-03-03T08:03:54;58;41;24
34240;PMS7003;20503;50.200;19.508;2023-03-03T08:14:14;65;46;26
34240;PMS7003;20503;50.200;19.508;2023-03-03T08:19:23;63;45;26
34240;PMS7003;20503;50.200;19.508;2023-03-03T08:24:26;60;42;25
34240;PMS7003;20503;50.200;19.508;2023-03-03T08:29:33;57;42;25
34240;PMS7003;20503;50.200;19.508;2023-03-03T08:34:40;57;41;25
34240;PMS7003;20503;50.200;19.508;2023-03-03T08:39:48;62;45;25
34240;PMS7003;20503;50.200;19.508;2023-03-03T08:44:56;55;42;25
34240;PMS7003;20503;50.200;19.508;2023-03-03T08:50:05;63;45;25
34240;PMS7003;20503;50.200;19.508;2023-03-03T08:55:13;66;45;27
34240;PMS7003;20503;50.200;19.508;2023-03-03T09:00:21;63;45;26
34240;PMS7003;20503;50.200;19.508;2023-03-03T09:05:29;64;44;26
34240;PMS7003;20503;50.200;19.508;2023-03-03T09:10:37;66;47;28
34240;PMS7003;20503;50.200;19.508;2023-03-03T09:15:45;70;51;28
34240;PMS7003;20503;50.200;19.508;2023-03-03T09:20:53;70;50;28
34240;PMS7003;20503;50.200;19.508;2023-03-03T09:26:47;66;49;28
34240;PMS7003;20503;50.200;19.508;2023-03-03T09:57:24;55;39;23
34240;PMS7003;20503;50.200;19.508;2023-03-03T10:07:47;62;42;24
34240;PMS7003;20503;50.200;19.508;2023-03-03T10:13:16;59;39;23
34240;PMS7003;20503;50.200;19.508;2023-03-03T10:18:17;57;39;22
34240;PMS7003;20503;50.200;19.508;2023-03-03T10:28:44;52;35;20
34240;PMS7003;20503;50.200;19.508;2023-03-03T10:44:35;45;34;18
34240;PMS7003;20503;50.200;19.508;2023-03-03T11:05:28;50;31;17
34240;PMS7003;20503;50.200;19.508;2023-03-03T11:36:52;47;32;15
34240;PMS7003;20503;50.200;19.508;2023-03-03T11:57:48;49;34;19
34240;PMS7003;20503;50.200;19.508;2023-03-03T12:03:48;49;32;19
34240;PMS7003;20503;50.200;19.508;2023-03-03T12:29:12;43;28;14
34240;PMS7003;20503;50.200;19.508;2023-03-03T12:45:02;34;28;15
34240;PMS7003;20503;50.200;19.508;2023-03-03T13:05:56;38;27;17
34240;PMS7003;20503;50.200;19.508;2023-03-03T13:21:37;33;21;12
34240;PMS7003;20503;50.200;19.508;2023-03-03T13:32:07;39;28;14
34240;PMS7003;20503;50.200;19.508;2023-03-03T13:37:19;33;26;14
34240;PMS7003;20503;50.200;19.508;2023-03-03T13:42:32;39;29;16
34240;PMS7003;20503;50.200;19.508;2023-03-03T13:58:13;43;29;19
34240;PMS7003;20503;50.200;19.508;2023-03-03T14:24:21;33;23;13
34240;PMS7003;20503;50.200;19.508;2023-03-03T14:29:30;33;25;16
34240;PMS7003;20503;50.200;19.508;2023-03-03T14:34:37;32;25;11
34240;PMS7003;20503;50.200;19.508;2023-03-03T14:39:41;33;23;13
34240;PMS7003;20503;50.200;19.508;2023-03-03T14:44:49;35;27;13
34240;PMS7003;20503;50.200;19.508;2023-03-03T14:49:56;32;23;12
34240;PMS7003;20503;50.200;19.508;2023-03-03T14:55:35;43;26;16
34240;PMS7003;20503;50.200;19.508;2023-03-03T15:05:28;32;24;14
34240;PMS7003;20503;50.200;19.508;2023-03-03T15:10:35;37;29;15
34240;PMS7003;20503;50.200;19.508;2023-03-03T15:15:47;35;28;17
34240;PMS7003;20503;50.200;19.508;2023-03-03T15:21:01;34;24;12
34240;PMS7003;20503;50.200;19.508;2023-03-03T15:26:09;26;19;12
34240;PMS7003;20503;50.200;19.508;2023-03-03T15:41:56;30;25;14
34240;PMS7003;20503;50.200;19.508;2023-03-03T15:52:26;32;23;14
34240;PMS7003;20503;50.200;19.508;2023-03-03T15:57:43;32;25;14
34240;PMS7003;20503;50.200;19.508;2023-03-03T16:13:20;33;25;14
34240;PMS7003;20503;50.200;19.508;2023-03-03T16:28:58;32;26;15
34240;PMS7003;20503;50.200;19.508;2023-03-03T16:34:09;35;23;15
34240;PMS7003;20503;50.200;19.508;2023-03-03T16:44:33;37;28;14
34240;PMS7003;20503;50.200;19.508;2023-03-03T16:55:09;41;29;16
34240;PMS7003;20503;50.200;19.508;2023-03-03T17:00:20;49;35;19
34240;PMS7003;20503;50.200;19.508;2023-03-03T17:05:34;46;35;20
34240;PMS7003;20503;50.200;19.508;2023-03-03T17:15:56;33;26;14
34240;PMS7003;20503;50.200;19.508;2023-03-03T17:21:13;23;17;12
34240;PMS7003;20503;50.200;19.508;2023-03-03T18:08:16;57;41;23
34240;PMS7003;20503;50.200;19.508;2023-03-03T18:22:48;27;15;12
34240;PMS7003;20503;50.200;19.508;2023-03-03T18:33:07;42;30;17
34240;PMS7003;20503;50.200;19.508;2023-03-03T18:59:08;44;34;17
34240;PMS7003;20503;50.200;19.508;2023-03-03T19:04:16;43;33;17
34240;PMS7003;20503;50.200;19.508;2023-03-03T19:14:33;41;31;18
34240;PMS7003;20503;50.200;19.508;2023-03-03T19:35:26;40;30;16
34240;PMS7003;20503;50.200;19.508;2023-03-03T19:51:07;43;30;14
34240;PMS7003;20503;50.200;19.508;2023-03-03T19:56:23;49;32;18
34240;PMS7003;20503;50.200;19.508;2023-03-03T20:06:49;42;31;17
34240;PMS7003;20503;50.200;19.508;2023-03-03T20:27:47;38;28;15
34240;PMS7003;20503;50.200;19.508;2023-03-03T21:04:23;33;24;14
34240;PMS7003;20503;50.200;19.508;2023-03-03T21:14:38;39;29;15
34240;PMS7003;20503;50.200;19.508;2023-03-03T21:19:42;31;23;14
34240;PMS7003;20503;50.200;19.508;2023-03-03T21:24:49;32;21;12
34240;PMS7003;20503;50.200;19.508;2023-03-03T21:35:14;32;25;12
34240;PMS7003;20503;50.200;19.508;2023-03-03T21:45:27;33;24;13
34240;PMS7003;20503;50.200;19.508;2023-03-03T21:50:30;40;28;16
34240;PMS7003;20503;50.200;19.508;2023-03-03T21:55:35;43;30;17
34240;PMS7003;20503;50.200;19.508;2023-03-03T22:00:37;39;29;17
34240;PMS7003;20503;50.200;19.508;2023-03-03T22:05:40;44;31;16
34240;PMS7003;20503;50.200;19.508;2023-03-03T22:10:42;46;33;17
34240;PMS7003;20503;50.200;19.508;2023-03-03T22:15:46;48;34;17
34240;PMS7003;20503;50.200;19.508;2023-03-03T22:20:48;47;31;17
34240;PMS7003;20503;50.200;19.508;2023-03-03T22:25:51;45;32;18
34240;PMS7003;20503;50.200;19.508;2023-03-03T22:30:54;45;31;16
34240;PMS7003;20503;50.200;19.508;2023-03-03T22:35:57;45;31;17
34240;PMS7003;20503;50.200;19.508;2023-03-03T22:40:59;47;32;17
34240;PMS7003;20503;50.200;19.508;2023-03-03T22:46:00;52;33;19
34240;PMS7003;20503;50.200;19.508;2023-03-03T22:51:02;43;30;16
34240;PMS7003;20503;50.200;19.508;2023-03-03T22:56:06;42;30;16
34240;PMS7003;20503;50.200;19.508;2023-03-03T23:01:08;38;30;17
34240;PMS7003;20503;50.200;19.508;2023-03-03T23:06:10;44;30;15
34240;PMS7003;20503;50.200;19.508;2023-03-03T23:11:13;40;29;18
34240;PMS7003;20503;50.200;19.508;2023-03-03T23:16:15;38;28;15
34240;PMS7003;20503;50.200;19.508;2023-03-03T23:21:18;34;28;14
34240;PMS7003;20503;50.200;19.508;2023-03-03T23:26:19;37;26;14
34240;PMS7003;20503;50.200;19.508;2023-03-03T23:31:22;34;25;13
34240;PMS7003;20503;50.200;19.508;2023-03-03T23:36:26;37;28;12
34240;PMS7003;20503;50.200;19.508;2023-03-03T23:41:28;40;27;12
34240;PMS7003;20503;50.200;19.508;2023-03-03T23:46:30;39;30;16
34240;PMS7003;20503;50.200;19.508;2023-03-03T23:51:32;40;26;13
34240;PMS7003;20503;50.200;19.508;2023-03-03T23:56:35;44;28;15
